sensor_id;sensor_type;location;lat;lon;timestamp;pressure;altitude;pressure_sealevel;temperature;humidity
72465;BME280;60471;52.150;4.508;2023-08-31T00:01:32;100519.69;;;15.44;71.48
72465;BME280;60471;52.150;4.508;2023-08-31T00:03:59;100533.38;;;15.63;70.67
72465;BME280;60471;52.150;4.508;2023-08-31T00:06:26;100524.22;;;15.55;71.51
72465;BME280;60471;52.150;4.508;2023-08-31T00:08:52;100523.47;;;15.65;71.79
72465;BME280;60471;52.150;4.508;2023-08-31T00:11:18;100529.56;;;15.79;71.47
72465;BME280;60471;52.150;4.508;2023-08-31T00:13:45;100519.28;;;15.74;71.78
72465;BME280;60471;52.150;4.508;2023-08-31T00:16:12;100516.03;;;15.82;71.98
72465;BME280;60471;52.150;4.508;2023-08-31T00:18:38;100517.91;;;15.69;72.04
72465;BME280;60471;52.150;4.508;2023-08-31T00:21:04;100522.50;;;15.67;71.18
72465;BME280;60471;52.150;4.508;2023-08-31T00:23:31;100514.19;;;15.58;70.80
72465;BME280;60471;52.150;4.508;2023-08-31T00:25:57;100504.13;;;15.63;70.12
72465;BME280;60471;52.150;4.508;2023-08-31T00:28:23;100505.47;;;15.69;70.42
72465;BME280;60471;52.150;4.508;2023-08-31T00:30:51;100521.41;;;15.69;68.63
72465;BME280;60471;52.150;4.508;2023-08-31T00:33:17;100510.81;;;15.56;68.80
72465;BME280;60471;52.150;4.508;2023-08-31T00:35:43;100506.03;;;15.49;68.19
72465;BME280;60471;52.150;4.508;2023-08-31T00:38:12;100497.00;;;15.51;67.56
72465;BME280;60471;52.150;4.508;2023-08-31T00:40:40;100506.78;;;15.51;66.22
72465;BME280;60471;52.150;4.508;2023-08-31T00:43:12;100509.22;;;15.54;66.08
72465;BME280;60471;52.150;4.508;2023-08-31T00:45:41;100503.75;;;15.44;66.02
72465;BME280;60471;52.150;4.508;2023-08-31T00:48:09;100501.28;;;15.41;65.86
72465;BME280;60471;52.150;4.508;2023-08-31T00:50:35;100501.34;;;15.28;65.84
72465;BME280;60471;52.150;4.508;2023-08-31T00:53:02;100491.34;;;15.32;65.73
72465;BME280;60471;52.150;4.508;2023-08-31T00:55:29;100505.19;;;15.24;66.51
72465;BME280;60471;52.150;4.508;2023-08-31T00:57:56;100505.81;;;15.28;66.58
72465;BME280;60471;52.150;4.508;2023-08-31T01:00:30;100495.63;;;15.22;66.75
72465;BME280;60471;52.150;4.508;2023-08-31T01:03:49;100499.03;;;15.24;67.49
72465;BME280;60471;52.150;4.508;2023-08-31T01:06:38;100498.53;;;15.43;66.27
72465;BME280;60471;52.150;4.508;2023-08-31T01:09:32;100511.38;;;15.49;65.38
72465;BME280;60471;52.150;4.508;2023-08-31T01:12:15;100504.88;;;15.53;66.37
72465;BME280;60471;52.150;4.508;2023-08-31T01:14:57;100511.84;;;15.67;66.98
72465;BME280;60471;52.150;4.508;2023-08-31T01:17:30;100511.50;;;15.71;66.23
72465;BME280;60471;52.150;4.508;2023-08-31T01:19:59;100516.81;;;15.71;66.33
72465;BME280;60471;52.150;4.508;2023-08-31T01:22:48;100526.00;;;15.67;66.70
72465;BME280;60471;52.150;4.508;2023-08-31T01:25:23;100515.31;;;15.80;66.56
72465;BME280;60471;52.150;4.508;2023-08-31T01:27:50;100511.91;;;15.78;66.00
72465;BME280;60471;52.150;4.508;2023-08-31T01:30:17;100510.28;;;15.64;67.26
72465;BME280;60471;52.150;4.508;2023-08-31T01:32:44;100515.97;;;15.71;66.71
72465;BME280;60471;52.150;4.508;2023-08-31T01:35:16;100503.47;;;15.60;66.10
72465;BME280;60471;52.150;4.508;2023-08-31T01:37:54;100501.16;;;15.79;65.18
72465;BME280;60471;52.150;4.508;2023-08-31T01:40:29;100508.13;;;15.69;65.45
72465;BME280;60471;52.150;4.508;2023-08-31T01:43:02;100504.53;;;15.57;65.29
72465;BME280;60471;52.150;4.508;2023-08-31T01:45:32;100501.38;;;15.52;65.73
72465;BME280;60471;52.150;4.508;2023-08-31T01:48:00;100494.91;;;15.44;66.20
72465;BME280;60471;52.150;4.508;2023-08-31T01:50:27;100498.25;;;15.58;66.42
72465;BME280;60471;52.150;4.508;2023-08-31T01:52:53;100503.03;;;15.66;66.61
72465;BME280;60471;52.150;4.508;2023-08-31T01:55:19;100500.91;;;15.58;66.89
72465;BME280;60471;52.150;4.508;2023-08-31T01:57:47;100502.38;;;15.38;68.00
72465;BME280;60471;52.150;4.508;2023-08-31T02:00:16;100502.03;;;15.43;68.63
72465;BME280;60471;52.150;4.508;2023-08-31T02:02:43;100505.66;;;15.42;68.96
72465;BME280;60471;52.150;4.508;2023-08-31T02:05:10;100512.72;;;15.30;69.28
72465;BME280;60471;52.150;4.508;2023-08-31T02:07:36;100498.41;;;15.07;70.67
72465;BME280;60471;52.150;4.508;2023-08-31T02:10:03;100507.38;;;14.94;72.05
72465;BME280;60471;52.150;4.508;2023-08-31T02:12:32;100511.75;;;14.95;72.19
72465;BME280;60471;52.150;4.508;2023-08-31T02:14:59;100513.25;;;14.99;72.99
72465;BME280;60471;52.150;4.508;2023-08-31T02:17:25;100511.59;;;15.22;72.01
72465;BME280;60471;52.150;4.508;2023-08-31T02:19:52;100510.47;;;15.00;72.73
72465;BME280;60471;52.150;4.508;2023-08-31T02:22:18;100511.06;;;15.17;72.40
72465;BME280;60471;52.150;4.508;2023-08-31T02:24:44;100504.88;;;15.16;72.74
72465;BME280;60471;52.150;4.508;2023-08-31T02:27:10;100508.31;;;15.05;73.19
72465;BME280;60471;52.150;4.508;2023-08-31T02:29:36;100511.09;;;15.04;73.44
72465;BME280;60471;52.150;4.508;2023-08-31T02:32:06;100513.31;;;15.10;73.74
72465;BME280;60471;52.150;4.508;2023-08-31T02:34:33;100505.63;;;15.18;73.21
72465;BME280;60471;52.150;4.508;2023-08-31T02:36:59;100504.34;;;15.24;73.09
72465;BME280;60471;52.150;4.508;2023-08-31T02:39:25;100505.00;;;15.15;73.53
72465;BME280;60471;52.150;4.508;2023-08-31T02:41:51;100502.50;;;15.00;74.48
72465;BME280;60471;52.150;4.508;2023-08-31T02:44:18;100505.00;;;15.15;73.99
72465;BME280;60471;52.150;4.508;2023-08-31T02:46:44;100507.88;;;15.12;73.79
72465;BME280;60471;52.150;4.508;2023-08-31T02:49:10;100508.06;;;15.21;73.67
72465;BME280;60471;52.150;4.508;2023-08-31T02:51:36;100505.13;;;15.13;73.64
72465;BME280;60471;52.150;4.508;2023-08-31T02:54:03;100500.22;;;15.07;74.14
72465;BME280;60471;52.150;4.508;2023-08-31T02:56:29;100502.75;;;15.21;73.30
72465;BME280;60471;52.150;4.508;2023-08-31T02:58:55;100506.53;;;15.30;72.61
72465;BME280;60471;52.150;4.508;2023-08-31T03:01:21;100504.41;;;15.35;72.43
72465;BME280;60471;52.150;4.508;2023-08-31T03:03:49;100505.44;;;15.45;71.46
72465;BME280;60471;52.150;4.508;2023-08-31T03:06:15;100505.56;;;15.68;70.47
72465;BME280;60471;52.150;4.508;2023-08-31T03:08:41;100508.88;;;15.82;69.01
72465;BME280;60471;52.150;4.508;2023-08-31T03:11:07;100505.31;;;15.94;67.93
72465;BME280;60471;52.150;4.508;2023-08-31T03:13:34;100514.78;;;15.99;67.10
72465;BME280;60471;52.150;4.508;2023-08-31T03:16:01;100507.66;;;16.10;66.79
72465;BME280;60471;52.150;4.508;2023-08-31T03:18:27;100510.34;;;16.21;65.97
72465;BME280;60471;52.150;4.508;2023-08-31T03:20:55;100509.50;;;16.21;66.22
72465;BME280;60471;52.150;4.508;2023-08-31T03:23:21;100511.34;;;16.32;66.02
72465;BME280;60471;52.150;4.508;2023-08-31T03:25:48;100503.34;;;16.20;65.80
72465;BME280;60471;52.150;4.508;2023-08-31T03:28:14;100506.75;;;16.45;65.05
72465;BME280;60471;52.150;4.508;2023-08-31T03:30:40;100520.09;;;16.45;65.44
72465;BME280;60471;52.150;4.508;2023-08-31T03:33:06;100512.06;;;16.34;65.65
72465;BME280;60471;52.150;4.508;2023-08-31T03:35:33;100508.47;;;16.46;65.27
72465;BME280;60471;52.150;4.508;2023-08-31T03:37:59;100508.34;;;16.59;64.85
72465;BME280;60471;52.150;4.508;2023-08-31T03:40:26;100515.50;;;16.58;64.94
72465;BME280;60471;52.150;4.508;2023-08-31T03:42:52;100511.38;;;16.43;65.89
72465;BME280;60471;52.150;4.508;2023-08-31T03:45:20;100513.53;;;16.60;64.86
72465;BME280;60471;52.150;4.508;2023-08-31T03:47:46;100514.69;;;16.69;64.67
72465;BME280;60471;52.150;4.508;2023-08-31T03:50:12;100519.78;;;16.83;64.09
72465;BME280;60471;52.150;4.508;2023-08-31T03:52:39;100505.94;;;16.67;64.43
72465;BME280;60471;52.150;4.508;2023-08-31T03:55:05;100513.72;;;16.70;64.01
72465;BME280;60471;52.150;4.508;2023-08-31T03:57:31;100521.97;;;16.78;64.07
72465;BME280;60471;52.150;4.508;2023-08-31T03:59:58;100516.88;;;16.75;63.92
72465;BME280;60471;52.150;4.508;2023-08-31T04:02:24;100512.03;;;16.69;63.89
72465;BME280;60471;52.150;4.508;2023-08-31T04:04:50;100518.69;;;16.74;63.54
72465;BME280;60471;52.150;4.508;2023-08-31T04:07:16;100516.16;;;16.95;63.11
72465;BME280;60471;52.150;4.508;2023-08-31T04:09:42;100520.63;;;16.72;64.60
72465;BME280;60471;52.150;4.508;2023-08-31T04:12:09;100534.31;;;16.79;65.78
72465;BME280;60471;52.150;4.508;2023-08-31T04:14:35;100528.47;;;16.63;70.09
72465;BME280;60471;52.150;4.508;2023-08-31T04:17:01;100532.31;;;16.59;71.56
72465;BME280;60471;52.150;4.508;2023-08-31T04:19:30;100532.69;;;16.54;72.00
72465;BME280;60471;52.150;4.508;2023-08-31T04:21:57;100535.34;;;16.54;71.83
72465;BME280;60471;52.150;4.508;2023-08-31T04:24:23;100540.56;;;16.56;71.42
72465;BME280;60471;52.150;4.508;2023-08-31T04:26:49;100536.44;;;16.51;70.82
72465;BME280;60471;52.150;4.508;2023-08-31T04:29:17;100541.91;;;16.50;69.28
72465;BME280;60471;52.150;4.508;2023-08-31T04:31:43;100543.06;;;16.35;68.86
72465;BME280;60471;52.150;4.508;2023-08-31T04:34:09;100549.84;;;16.39;68.33
72465;BME280;60471;52.150;4.508;2023-08-31T04:36:35;100542.75;;;16.50;67.82
72465;BME280;60471;52.150;4.508;2023-08-31T04:39:02;100550.31;;;16.33;68.30
72465;BME280;60471;52.150;4.508;2023-08-31T04:41:29;100552.16;;;16.43;67.08
72465;BME280;60471;52.150;4.508;2023-08-31T04:43:55;100558.09;;;16.47;67.30
72465;BME280;60471;52.150;4.508;2023-08-31T04:46:21;100561.63;;;16.59;66.43
72465;BME280;60471;52.150;4.508;2023-08-31T04:48:48;100569.25;;;16.52;67.11
72465;BME280;60471;52.150;4.508;2023-08-31T04:51:34;100589.56;;;16.07;68.53
72465;BME280;60471;52.150;4.508;2023-08-31T04:54:05;100588.88;;;15.68;71.49
72465;BME280;60471;52.150;4.508;2023-08-31T04:56:32;100589.81;;;15.18;75.35
72465;BME280;60471;52.150;4.508;2023-08-31T04:58:59;100584.66;;;15.03;76.69
72465;BME280;60471;52.150;4.508;2023-08-31T05:01:26;100579.66;;;14.99;77.01
72465;BME280;60471;52.150;4.508;2023-08-31T05:03:52;100578.06;;;14.96;77.58
72465;BME280;60471;52.150;4.508;2023-08-31T05:06:19;100576.66;;;15.03;78.25
72465;BME280;60471;52.150;4.508;2023-08-31T05:08:49;100577.97;;;14.98;78.28
72465;BME280;60471;52.150;4.508;2023-08-31T05:11:15;100583.91;;;15.01;78.36
72465;BME280;60471;52.150;4.508;2023-08-31T05:13:42;100583.03;;;15.14;77.95
72465;BME280;60471;52.150;4.508;2023-08-31T05:16:09;100583.91;;;15.01;78.08
72465;BME280;60471;52.150;4.508;2023-08-31T05:18:35;100585.59;;;15.15;77.80
72465;BME280;60471;52.150;4.508;2023-08-31T05:21:03;100591.22;;;15.23;78.20
72465;BME280;60471;52.150;4.508;2023-08-31T05:23:29;100594.75;;;15.48;77.23
72465;BME280;60471;52.150;4.508;2023-08-31T05:25:56;100593.69;;;15.63;76.58
72465;BME280;60471;52.150;4.508;2023-08-31T05:28:23;100598.25;;;15.61;76.70
72465;BME280;60471;52.150;4.508;2023-08-31T05:30:55;100600.38;;;15.69;76.52
72465;BME280;60471;52.150;4.508;2023-08-31T05:33:23;100617.91;;;15.58;76.47
72465;BME280;60471;52.150;4.508;2023-08-31T05:35:51;100608.25;;;15.57;75.28
72465;BME280;60471;52.150;4.508;2023-08-31T05:38:17;100609.75;;;15.61;75.29
72465;BME280;60471;52.150;4.508;2023-08-31T05:40:43;100600.97;;;15.72;74.49
72465;BME280;60471;52.150;4.508;2023-08-31T05:43:14;100598.28;;;16.09;73.46
72465;BME280;60471;52.150;4.508;2023-08-31T05:45:41;100607.16;;;16.20;72.80
72465;BME280;60471;52.150;4.508;2023-08-31T05:48:08;100605.19;;;16.11;74.10
72465;BME280;60471;52.150;4.508;2023-08-31T05:50:34;100616.88;;;15.98;74.81
72465;BME280;60471;52.150;4.508;2023-08-31T05:53:02;100611.47;;;16.10;73.92
72465;BME280;60471;52.150;4.508;2023-08-31T05:55:30;100622.13;;;16.10;73.69
72465;BME280;60471;52.150;4.508;2023-08-31T05:57:56;100612.97;;;16.26;72.89
72465;BME280;60471;52.150;4.508;2023-08-31T06:00:22;100618.81;;;16.31;72.98
72465;BME280;60471;52.150;4.508;2023-08-31T06:02:49;100626.69;;;16.32;73.12
72465;BME280;60471;52.150;4.508;2023-08-31T06:05:15;100622.56;;;16.28;73.06
72465;BME280;60471;52.150;4.508;2023-08-31T06:07:44;100623.81;;;16.46;72.93
72465;BME280;60471;52.150;4.508;2023-08-31T06:10:11;100627.84;;;16.52;72.24
72465;BME280;60471;52.150;4.508;2023-08-31T06:12:37;100635.44;;;16.45;71.54
72465;BME280;60471;52.150;4.508;2023-08-31T06:15:04;100635.84;;;16.52;71.20
72465;BME280;60471;52.150;4.508;2023-08-31T06:17:31;100641.38;;;16.73;70.48
72465;BME280;60471;52.150;4.508;2023-08-31T06:19:57;100636.22;;;16.59;70.81
72465;BME280;60471;52.150;4.508;2023-08-31T06:22:23;100643.09;;;16.85;69.48
72465;BME280;60471;52.150;4.508;2023-08-31T06:24:50;100649.03;;;16.89;69.27
72465;BME280;60471;52.150;4.508;2023-08-31T06:27:18;100648.19;;;16.88;68.93
72465;BME280;60471;52.150;4.508;2023-08-31T06:29:44;100647.34;;;16.99;68.89
72465;BME280;60471;52.150;4.508;2023-08-31T06:32:10;100645.66;;;16.98;68.96
72465;BME280;60471;52.150;4.508;2023-08-31T06:34:37;100648.81;;;17.14;68.83
72465;BME280;60471;52.150;4.508;2023-08-31T06:37:03;100646.91;;;17.27;67.34
72465;BME280;60471;52.150;4.508;2023-08-31T06:39:29;100634.53;;;17.15;67.16
72465;BME280;60471;52.150;4.508;2023-08-31T06:41:56;100648.06;;;16.90;67.98
72465;BME280;60471;52.150;4.508;2023-08-31T06:44:22;100659.78;;;16.76;68.43
72465;BME280;60471;52.150;4.508;2023-08-31T06:46:48;100658.72;;;16.78;68.15
72465;BME280;60471;52.150;4.508;2023-08-31T06:49:15;100654.03;;;16.93;67.96
72465;BME280;60471;52.150;4.508;2023-08-31T06:51:41;100659.66;;;16.77;67.57
72465;BME280;60471;52.150;4.508;2023-08-31T06:54:07;100669.78;;;16.96;67.34
72465;BME280;60471;52.150;4.508;2023-08-31T06:56:34;100658.28;;;17.07;66.10
72465;BME280;60471;52.150;4.508;2023-08-31T06:59:01;100659.13;;;17.19;65.63
72465;BME280;60471;52.150;4.508;2023-08-31T07:01:29;100663.88;;;17.15;67.04
72465;BME280;60471;52.150;4.508;2023-08-31T07:03:55;100671.97;;;17.14;66.13
72465;BME280;60471;52.150;4.508;2023-08-31T07:06:22;100671.63;;;17.18;65.50
72465;BME280;60471;52.150;4.508;2023-08-31T07:08:48;100669.69;;;17.20;65.25
72465;BME280;60471;52.150;4.508;2023-08-31T07:11:15;100676.72;;;17.21;63.79
72465;BME280;60471;52.150;4.508;2023-08-31T07:13:41;100668.59;;;17.23;62.36
72465;BME280;60471;52.150;4.508;2023-08-31T07:16:07;100679.50;;;17.31;62.56
72465;BME280;60471;52.150;4.508;2023-08-31T07:18:35;100675.75;;;17.33;62.00
72465;BME280;60471;52.150;4.508;2023-08-31T07:21:02;100676.38;;;17.37;61.78
72465;BME280;60471;52.150;4.508;2023-08-31T07:23:30;100672.72;;;17.49;61.63
72465;BME280;60471;52.150;4.508;2023-08-31T07:25:57;100685.81;;;17.86;60.98
72465;BME280;60471;52.150;4.508;2023-08-31T07:28:27;100704.78;;;17.72;60.95
72465;BME280;60471;52.150;4.508;2023-08-31T07:31:06;100681.78;;;17.58;61.83
72465;BME280;60471;52.150;4.508;2023-08-31T07:33:34;100687.41;;;17.77;61.58
72465;BME280;60471;52.150;4.508;2023-08-31T07:36:01;100680.63;;;17.73;61.18
72465;BME280;60471;52.150;4.508;2023-08-31T07:38:30;100689.94;;;17.79;59.26
72465;BME280;60471;52.150;4.508;2023-08-31T07:40:57;100687.88;;;17.93;59.78
72465;BME280;60471;52.150;4.508;2023-08-31T07:43:25;100686.53;;;18.31;59.19
72465;BME280;60471;52.150;4.508;2023-08-31T07:45:52;100702.31;;;18.34;58.61
72465;BME280;60471;52.150;4.508;2023-08-31T07:48:19;100701.91;;;18.50;58.61
72465;BME280;60471;52.150;4.508;2023-08-31T07:50:45;100691.41;;;18.69;57.70
72465;BME280;60471;52.150;4.508;2023-08-31T07:53:12;100705.56;;;18.81;57.51
72465;BME280;60471;52.150;4.508;2023-08-31T07:55:39;100710.19;;;18.79;56.87
72465;BME280;60471;52.150;4.508;2023-08-31T07:58:06;100711.50;;;18.85;56.59
72465;BME280;60471;52.150;4.508;2023-08-31T08:00:32;100719.00;;;18.70;56.65
72465;BME280;60471;52.150;4.508;2023-08-31T08:02:59;100708.31;;;18.91;55.91
72465;BME280;60471;52.150;4.508;2023-08-31T08:05:25;100711.84;;;18.91;55.21
72465;BME280;60471;52.150;4.508;2023-08-31T08:07:52;100713.06;;;19.08;55.32
72465;BME280;60471;52.150;4.508;2023-08-31T08:10:19;100711.44;;;18.96;56.15
72465;BME280;60471;52.150;4.508;2023-08-31T08:12:46;100712.84;;;18.47;57.83
72465;BME280;60471;52.150;4.508;2023-08-31T08:15:12;100726.97;;;18.38;58.34
72465;BME280;60471;52.150;4.508;2023-08-31T08:17:39;100720.50;;;18.83;57.22
72465;BME280;60471;52.150;4.508;2023-08-31T08:20:06;100726.88;;;19.34;55.63
72465;BME280;60471;52.150;4.508;2023-08-31T08:22:33;100717.88;;;19.35;55.67
72465;BME280;60471;52.150;4.508;2023-08-31T08:24:59;100725.06;;;19.34;55.99
72465;BME280;60471;52.150;4.508;2023-08-31T08:27:26;100722.97;;;18.96;54.98
72465;BME280;60471;52.150;4.508;2023-08-31T08:29:52;100731.53;;;19.11;55.45
72465;BME280;60471;52.150;4.508;2023-08-31T08:32:19;100733.09;;;19.55;54.01
72465;BME280;60471;52.150;4.508;2023-08-31T08:34:45;100732.66;;;19.39;54.95
72465;BME280;60471;52.150;4.508;2023-08-31T08:37:11;100761.81;;;19.32;55.28
72465;BME280;60471;52.150;4.508;2023-08-31T08:39:37;100746.66;;;19.22;54.97
72465;BME280;60471;52.150;4.508;2023-08-31T08:42:04;100733.09;;;18.93;54.49
72465;BME280;60471;52.150;4.508;2023-08-31T08:44:33;100740.84;;;19.17;54.68
72465;BME280;60471;52.150;4.508;2023-08-31T08:47:02;100748.00;;;19.37;54.38
72465;BME280;60471;52.150;4.508;2023-08-31T08:49:31;100752.09;;;19.10;55.79
72465;BME280;60471;52.150;4.508;2023-08-31T08:51:59;100752.66;;;19.35;54.92
72465;BME280;60471;52.150;4.508;2023-08-31T08:54:25;100765.56;;;19.30;53.73
72465;BME280;60471;52.150;4.508;2023-08-31T08:56:53;100762.88;;;19.51;52.48
72465;BME280;60471;52.150;4.508;2023-08-31T08:59:19;100757.59;;;19.39;52.86
72465;BME280;60471;52.150;4.508;2023-08-31T09:01:46;100763.56;;;19.01;52.78
72465;BME280;60471;52.150;4.508;2023-08-31T09:04:12;100767.47;;;19.18;53.32
72465;BME280;60471;52.150;4.508;2023-08-31T09:06:39;100773.34;;;19.12;51.54
72465;BME280;60471;52.150;4.508;2023-08-31T09:09:07;100782.16;;;19.45;51.48
72465;BME280;60471;52.150;4.508;2023-08-31T09:11:35;100767.94;;;19.44;51.21
72465;BME280;60471;52.150;4.508;2023-08-31T09:14:16;100795.53;;;19.45;51.42
72465;BME280;60471;52.150;4.508;2023-08-31T09:16:50;100774.13;;;19.24;52.89
72465;BME280;60471;52.150;4.508;2023-08-31T09:19:26;100787.88;;;19.40;50.12
72465;BME280;60471;52.150;4.508;2023-08-31T09:21:56;100773.84;;;19.68;49.50
72465;BME280;60471;52.150;4.508;2023-08-31T09:24:23;100776.66;;;19.67;50.41
72465;BME280;60471;52.150;4.508;2023-08-31T09:26:53;100770.66;;;19.54;51.83
72465;BME280;60471;52.150;4.508;2023-08-31T09:29:22;100778.94;;;19.51;51.87
72465;BME280;60471;52.150;4.508;2023-08-31T09:31:48;100771.75;;;20.03;50.90
72465;BME280;60471;52.150;4.508;2023-08-31T09:34:15;100767.09;;;19.74;49.96
72465;BME280;60471;52.150;4.508;2023-08-31T09:36:43;100772.50;;;20.24;50.26
72465;BME280;60471;52.150;4.508;2023-08-31T09:39:10;100779.53;;;20.15;50.06
72465;BME280;60471;52.150;4.508;2023-08-31T09:41:54;100783.75;;;20.18;48.11
72465;BME280;60471;52.150;4.508;2023-08-31T09:44:21;100804.75;;;20.13;47.41
72465;BME280;60471;52.150;4.508;2023-08-31T09:46:48;100785.69;;;19.66;47.90
72465;BME280;60471;52.150;4.508;2023-08-31T09:49:16;100785.28;;;19.71;49.23
72465;BME280;60471;52.150;4.508;2023-08-31T09:51:45;100791.25;;;19.32;50.13
72465;BME280;60471;52.150;4.508;2023-08-31T09:54:14;100777.03;;;20.23;49.05
72465;BME280;60471;52.150;4.508;2023-08-31T09:56:43;100809.91;;;20.35;48.82
72465;BME280;60471;52.150;4.508;2023-08-31T09:59:12;100797.81;;;20.01;48.07
72465;BME280;60471;52.150;4.508;2023-08-31T10:01:41;100792.03;;;20.05;46.62
72465;BME280;60471;52.150;4.508;2023-08-31T10:04:08;100786.03;;;19.82;48.41
72465;BME280;60471;52.150;4.508;2023-08-31T10:06:35;100794.19;;;20.71;47.70
72465;BME280;60471;52.150;4.508;2023-08-31T10:09:03;100790.38;;;21.41;46.18
72465;BME280;60471;52.150;4.508;2023-08-31T10:11:30;100808.31;;;20.63;43.30
72465;BME280;60471;52.150;4.508;2023-08-31T10:13:58;100785.16;;;21.39;43.58
72465;BME280;60471;52.150;4.508;2023-08-31T10:16:25;100795.13;;;24.50;38.10
72465;BME280;60471;52.150;4.508;2023-08-31T10:18:55;100788.22;;;25.86;35.31
72465;BME280;60471;52.150;4.508;2023-08-31T10:21:22;100818.16;;;26.63;32.41
72465;BME280;60471;52.150;4.508;2023-08-31T10:23:49;100777.72;;;27.30;31.17
72465;BME280;60471;52.150;4.508;2023-08-31T10:26:29;100784.28;;;29.39;28.98
72465;BME280;60471;52.150;4.508;2023-08-31T10:28:58;100779.44;;;29.34;29.10
72465;BME280;60471;52.150;4.508;2023-08-31T10:31:29;100790.50;;;28.18;31.21
72465;BME280;60471;52.150;4.508;2023-08-31T10:34:05;100792.88;;;29.70;29.84
72465;BME280;60471;52.150;4.508;2023-08-31T10:36:40;100787.50;;;29.49;29.09
72465;BME280;60471;52.150;4.508;2023-08-31T10:39:13;100784.22;;;31.17;26.58
72465;BME280;60471;52.150;4.508;2023-08-31T10:41:55;100793.72;;;29.64;27.03
72465;BME280;60471;52.150;4.508;2023-08-31T10:44:26;100789.47;;;27.60;30.67
72465;BME280;60471;52.150;4.508;2023-08-31T10:46:59;100787.41;;;27.09;31.30
72465;BME280;60471;52.150;4.508;2023-08-31T10:49:29;100808.13;;;27.92;30.84
72465;BME280;60471;52.150;4.508;2023-08-31T10:52:18;100788.28;;;26.48;34.31
72465;BME280;60471;52.150;4.508;2023-08-31T10:54:54;100790.13;;;25.53;34.90
72465;BME280;60471;52.150;4.508;2023-08-31T10:57:29;100792.56;;;24.40;38.36
72465;BME280;60471;52.150;4.508;2023-08-31T10:59:57;100799.72;;;24.66;36.95
72465;BME280;60471;52.150;4.508;2023-08-31T11:05:14;100788.25;;;25.78;34.78
72465;BME280;60471;52.150;4.508;2023-08-31T11:07:47;100794.31;;;26.27;34.36
72465;BME280;60471;52.150;4.508;2023-08-31T11:12:45;100796.38;;;26.56;33.84
72465;BME280;60471;52.150;4.508;2023-08-31T11:15:17;100791.13;;;27.46;32.38
72465;BME280;60471;52.150;4.508;2023-08-31T11:17:45;100795.47;;;26.41;33.19
72465;BME280;60471;52.150;4.508;2023-08-31T11:20:16;100785.28;;;28.67;31.32
72465;BME280;60471;52.150;4.508;2023-08-31T11:22:50;100805.94;;;28.32;30.08
72465;BME280;60471;52.150;4.508;2023-08-31T11:25:20;100811.97;;;27.08;31.31
72465;BME280;60471;52.150;4.508;2023-08-31T11:28:02;100813.16;;;27.43;31.20
72465;BME280;60471;52.150;4.508;2023-08-31T11:30:32;100794.84;;;27.30;31.38
72465;BME280;60471;52.150;4.508;2023-08-31T11:33:04;100803.84;;;25.35;34.71
72465;BME280;60471;52.150;4.508;2023-08-31T11:35:43;100798.91;;;25.63;34.76
72465;BME280;60471;52.150;4.508;2023-08-31T11:38:10;100799.56;;;24.25;36.10
72465;BME280;60471;52.150;4.508;2023-08-31T11:40:37;100811.97;;;24.52;36.99
72465;BME280;60471;52.150;4.508;2023-08-31T11:43:07;100801.03;;;24.45;38.14
72465;BME280;60471;52.150;4.508;2023-08-31T11:45:34;100820.56;;;25.30;35.40
72465;BME280;60471;52.150;4.508;2023-08-31T11:48:04;100804.00;;;25.41;35.45
72465;BME280;60471;52.150;4.508;2023-08-31T11:50:32;100798.81;;;26.43;32.47
72465;BME280;60471;52.150;4.508;2023-08-31T11:52:58;100796.25;;;27.41;31.98
72465;BME280;60471;52.150;4.508;2023-08-31T11:55:25;100788.28;;;28.36;30.05
72465;BME280;60471;52.150;4.508;2023-08-31T11:57:52;100808.81;;;29.45;29.42
72465;BME280;60471;52.150;4.508;2023-08-31T12:00:23;100812.09;;;28.92;29.43
72465;BME280;60471;52.150;4.508;2023-08-31T12:03:00;100794.78;;;28.56;30.22
72465;BME280;60471;52.150;4.508;2023-08-31T12:05:27;100802.06;;;27.90;30.54
72465;BME280;60471;52.150;4.508;2023-08-31T12:07:55;100811.84;;;28.06;30.58
72465;BME280;60471;52.150;4.508;2023-08-31T12:10:25;100792.91;;;28.57;29.25
72465;BME280;60471;52.150;4.508;2023-08-31T12:12:52;100799.69;;;29.53;28.63
72465;BME280;60471;52.150;4.508;2023-08-31T12:15:19;100809.94;;;30.68;26.57
72465;BME280;60471;52.150;4.508;2023-08-31T12:17:48;100796.31;;;30.68;27.20
72465;BME280;60471;52.150;4.508;2023-08-31T12:20:25;100809.59;;;28.24;29.04
72465;BME280;60471;52.150;4.508;2023-08-31T12:22:55;100799.94;;;29.37;29.32
72465;BME280;60471;52.150;4.508;2023-08-31T12:25:21;100791.66;;;29.73;29.00
72465;BME280;60471;52.150;4.508;2023-08-31T12:27:48;100805.16;;;32.92;24.61
72465;BME280;60471;52.150;4.508;2023-08-31T12:30:15;100800.69;;;30.63;27.36
72465;BME280;60471;52.150;4.508;2023-08-31T12:32:41;100797.03;;;31.30;25.53
72465;BME280;60471;52.150;4.508;2023-08-31T12:35:08;100794.50;;;31.41;23.90
72465;BME280;60471;52.150;4.508;2023-08-31T12:37:35;100811.03;;;30.94;24.74
72465;BME280;60471;52.150;4.508;2023-08-31T12:40:02;100797.22;;;33.09;22.58
72465;BME280;60471;52.150;4.508;2023-08-31T12:42:31;100818.00;;;31.62;24.40
72465;BME280;60471;52.150;4.508;2023-08-31T12:44:58;100797.41;;;31.66;24.60
72465;BME280;60471;52.150;4.508;2023-08-31T12:47:24;100830.19;;;30.52;25.52
72465;BME280;60471;52.150;4.508;2023-08-31T12:49:50;100802.69;;;28.37;29.52
72465;BME280;60471;52.150;4.508;2023-08-31T12:52:16;100796.13;;;30.90;26.32
72465;BME280;60471;52.150;4.508;2023-08-31T12:54:43;100799.94;;;32.46;23.42
72465;BME280;60471;52.150;4.508;2023-08-31T12:57:09;100796.34;;;30.88;24.78
72465;BME280;60471;52.150;4.508;2023-08-31T12:59:35;100805.34;;;30.75;25.89
72465;BME280;60471;52.150;4.508;2023-08-31T13:02:01;100803.53;;;29.65;26.64